Decoded Metar for PAYA (YAKUTAT in AK, USA) (IATA:YAK) | Meteo·Mobile Aviation Weather
aviador You're here:

PAYA Decoded Metar

YAKUTAT in AK, USA
Report Time2019-02-16 06:53:00
UTC Time2019-02-16 07:45:41
Flight Rules vfr VFR
WindCalm
Visibility9999 m
Phenomena:N/A
Clouds:N/A
Expected CloudBase > 2,400 ft AGL from Temp-Dew spread
CeilingNone
Temp-7°C (ISA -22)
Dew Point-13°C (63% RH)
AAT-10.2°C
QNH1018 hPa
Density Alt-2,828 ft
Elevation36 ft
Report Wrong Elevation
Raw Report
PAYA 160653Z AUTO 00000KT 10SM CLR M07/M13 A3006 RMK AO2 SLP179
T10721128 TSNO=

Extra information for PAYA:More info

Metar Taf Metar & Taf Last 4 Metars F.Rules Stats Wind Profile Meteogram Temp Stats Airport Information Weather charts Add Link Nearby VenuesMetar ALERT Operation Metar Decoded Social comments

AIRNAV info for PAYA